createdAt,value
2022-11-13T00:01:25.322Z,7.88
2022-11-13T00:04:12.135Z,7.22
2022-11-13T00:06:59.789Z,6.85
2022-11-13T00:09:47.223Z,7.20
2022-11-13T00:12:34.539Z,6.90
2022-11-13T00:15:21.526Z,7.32
2022-11-13T00:18:08.420Z,7.60
2022-11-13T00:20:55.621Z,7.78
2022-11-13T00:23:42.905Z,8.23
2022-11-13T00:26:31.894Z,8.52
2022-11-13T00:29:19.126Z,8.15
2022-11-13T00:32:06.366Z,8.18
2022-11-13T00:34:54.027Z,8.70
2022-11-13T00:37:41.357Z,9.68
2022-11-13T00:40:28.597Z,10.25
2022-11-13T00:43:15.743Z,10.35
2022-11-13T00:46:02.584Z,10.23
2022-11-13T00:48:49.900Z,9.73
2022-11-13T00:51:37.058Z,9.65
2022-11-13T00:54:24.003Z,10.35
2022-11-13T00:57:11.238Z,10.93
2022-11-13T01:00:01.009Z,9.15
2022-11-13T01:02:47.992Z,10.60
2022-11-13T01:05:43.116Z,11.10
2022-11-13T01:08:30.669Z,13.13
2022-11-13T01:11:20.814Z,19.70
2022-11-13T01:14:08.024Z,12.93
2022-11-13T01:16:58.040Z,14.50
2022-11-13T01:19:45.402Z,20.00
2022-11-13T01:22:32.864Z,14.82
2022-11-13T01:25:19.950Z,21.08
2022-11-13T01:28:07.017Z,15.25
2022-11-13T01:30:54.119Z,15.98
2022-11-13T01:33:41.263Z,18.58
2022-11-13T01:36:30.127Z,16.95
2022-11-13T01:39:17.345Z,34.05
2022-11-13T01:42:04.160Z,25.10
2022-11-13T01:44:54.566Z,16.33
2022-11-13T01:47:41.871Z,15.45
2022-11-13T01:50:29.208Z,15.10
2022-11-13T01:53:16.220Z,13.90
2022-11-13T01:56:03.539Z,13.40
2022-11-13T01:58:58.617Z,12.98
2022-11-13T02:01:45.724Z,11.52
2022-11-13T02:04:34.085Z,10.35
2022-11-13T02:07:22.967Z,9.98
2022-11-13T02:10:10.542Z,10.52
2022-11-13T02:13:01.178Z,10.15
2022-11-13T02:15:49.670Z,8.38
2022-11-13T02:18:38.647Z,8.43
2022-11-13T02:22:05.369Z,7.97
2022-11-13T02:24:54.773Z,6.03
2022-11-13T02:27:50.093Z,5.57
2022-11-13T02:30:37.491Z,5.40
2022-11-13T02:33:25.034Z,6.78
2022-11-13T02:36:13.064Z,5.03
2022-11-13T02:39:09.664Z,8.35
2022-11-13T02:41:56.785Z,4.68
2022-11-13T02:44:44.001Z,4.78
2022-11-13T02:47:31.048Z,5.03
2022-11-13T02:50:19.760Z,4.93
2022-11-13T02:53:08.457Z,11.38
2022-11-13T02:55:55.483Z,4.95
2022-11-13T02:58:42.867Z,3.90
2022-11-13T03:01:31.420Z,4.53
2022-11-13T03:04:18.347Z,3.65
2022-11-13T03:07:05.727Z,6.78
2022-11-13T03:09:52.732Z,3.05
2022-11-13T03:12:40.029Z,2.60
2022-11-13T03:15:27.192Z,2.80
2022-11-13T03:18:14.412Z,2.67
2022-11-13T03:21:11.557Z,4.45
2022-11-13T03:23:58.726Z,1.95
2022-11-13T03:26:45.769Z,2.20
2022-11-13T03:29:32.914Z,2.00
2022-11-13T03:32:19.810Z,1.70
2022-11-13T03:35:07.489Z,2.20
2022-11-13T03:37:54.876Z,1.50
2022-11-13T03:40:42.959Z,3.72
2022-11-13T03:43:33.448Z,2.63
2022-11-13T03:46:20.857Z,2.90
2022-11-13T03:49:08.231Z,2.05
2022-11-13T03:51:55.392Z,1.70
2022-11-13T03:54:43.152Z,2.63
2022-11-13T03:57:30.459Z,2.25
2022-11-13T04:00:18.576Z,2.13
2022-11-13T04:03:06.013Z,2.35
2022-11-13T04:05:53.456Z,2.80
2022-11-13T04:08:40.413Z,3.17
2022-11-13T04:11:27.872Z,7.30
2022-11-13T04:14:15.609Z,2.53
2022-11-13T04:17:02.602Z,2.92
2022-11-13T04:19:49.926Z,3.58
2022-11-13T04:22:37.079Z,4.43
2022-11-13T04:25:24.982Z,1.90
2022-11-13T04:28:12.606Z,1.85
2022-11-13T04:31:00.258Z,1.20
2022-11-13T04:33:47.651Z,6.63
2022-11-13T04:36:35.815Z,24.80
2022-11-13T04:39:24.595Z,3.15
2022-11-13T04:42:48.546Z,3.20
2022-11-13T04:45:36.525Z,3.65
2022-11-13T04:48:23.721Z,4.57
2022-11-13T04:51:11.020Z,2.35
2022-11-13T04:53:58.456Z,2.10
2022-11-13T04:56:45.651Z,1.40
2022-11-13T04:59:33.082Z,4.22
2022-11-13T05:02:20.518Z,2.28
2022-11-13T05:05:07.935Z,2.17
2022-11-13T05:07:55.392Z,1.75
2022-11-13T05:10:42.985Z,1.83
2022-11-13T05:13:37.221Z,2.15
2022-11-13T05:16:24.164Z,2.30
2022-11-13T05:19:11.689Z,1.40
2022-11-13T05:21:58.957Z,1.52
2022-11-13T05:24:45.872Z,3.53
2022-11-13T05:27:33.160Z,6.38
2022-11-13T05:30:23.027Z,1.00
2022-11-13T05:33:13.679Z,1.70
2022-11-13T05:36:12.744Z,1.20
2022-11-13T05:39:02.854Z,1.60
2022-11-13T05:41:50.328Z,1.13
2022-11-13T05:44:37.552Z,1.40
2022-11-13T05:47:24.747Z,3.28
2022-11-13T05:50:12.035Z,3.65
2022-11-13T05:52:58.842Z,10.82
2022-11-13T05:55:46.046Z,2.38
2022-11-13T05:58:33.548Z,2.05
2022-11-13T06:01:24.539Z,1.88
2022-11-13T06:04:11.877Z,1.80
2022-11-13T06:06:59.310Z,1.70
2022-11-13T06:09:46.787Z,2.05
2022-11-13T06:12:33.989Z,1.60
2022-11-13T06:15:20.923Z,1.88
2022-11-13T06:18:08.012Z,3.58
2022-11-13T06:20:54.968Z,1.70
2022-11-13T06:23:42.404Z,1.70
2022-11-13T06:26:32.812Z,1.92
2022-11-13T06:29:20.270Z,1.70
2022-11-13T06:32:07.787Z,1.70
2022-11-13T06:34:54.776Z,1.70
2022-11-13T06:37:42.410Z,1.98
2022-11-13T06:40:29.675Z,3.28
2022-11-13T06:43:17.026Z,2.40
2022-11-13T06:46:13.623Z,1.85
2022-11-13T06:49:00.881Z,3.47
2022-11-13T06:51:47.928Z,2.97
2022-11-13T06:54:34.592Z,2.60
2022-11-13T06:57:21.983Z,2.10
2022-11-13T07:00:10.258Z,1.90
2022-11-13T07:02:58.023Z,2.65
2022-11-13T07:05:46.590Z,3.40
2022-11-13T07:08:33.959Z,2.42
2022-11-13T07:11:23.083Z,2.40
2022-11-13T07:14:13.216Z,2.95
2022-11-13T07:17:15.391Z,2.42
2022-11-13T07:20:02.576Z,2.50
2022-11-13T07:22:49.564Z,2.20
2022-11-13T07:25:37.550Z,2.50
2022-11-13T07:28:24.801Z,2.47
2022-11-13T07:31:14.206Z,2.90
2022-11-13T07:34:01.256Z,5.70
2022-11-13T07:36:48.683Z,2.55
2022-11-13T07:39:36.109Z,2.72
2022-11-13T07:42:25.914Z,2.20
2022-11-13T07:45:13.260Z,2.40
2022-11-13T07:48:02.323Z,3.60
2022-11-13T07:50:50.058Z,2.30
2022-11-13T07:53:39.959Z,3.88
2022-11-13T07:56:27.307Z,2.88
2022-11-13T07:59:15.976Z,3.53
2022-11-13T08:02:03.820Z,2.45
2022-11-13T08:04:50.832Z,2.35
2022-11-13T08:07:37.878Z,3.10
2022-11-13T08:10:24.984Z,2.78
2022-11-13T08:13:12.885Z,2.75
2022-11-13T08:16:01.498Z,3.80
2022-11-13T08:18:48.838Z,2.90
2022-11-13T08:21:36.937Z,4.68
2022-11-13T08:24:24.481Z,2.90
2022-11-13T08:27:11.797Z,3.10
2022-11-13T08:29:58.933Z,8.25
2022-11-13T08:32:46.592Z,3.35
2022-11-13T08:35:33.833Z,2.92
2022-11-13T08:38:25.074Z,4.85
2022-11-13T08:41:12.543Z,3.03
2022-11-13T08:44:00.823Z,3.05
2022-11-13T08:46:48.263Z,3.63
2022-11-13T08:49:35.761Z,3.30
2022-11-13T08:52:22.790Z,3.10
2022-11-13T08:55:10.561Z,3.60
2022-11-13T08:58:02.663Z,3.40
2022-11-13T09:00:49.911Z,7.20
2022-11-13T09:03:37.574Z,6.22
2022-11-13T09:06:24.627Z,6.50
2022-11-13T09:09:12.414Z,4.47
2022-11-13T09:11:59.692Z,4.20
2022-11-13T09:14:46.913Z,5.07
2022-11-13T09:17:36.665Z,3.17
2022-11-13T09:20:23.993Z,3.00
2022-11-13T09:23:11.311Z,8.55
2022-11-13T09:26:01.471Z,3.00
2022-11-13T09:28:48.511Z,8.32
2022-11-13T09:31:35.880Z,3.90
2022-11-13T09:34:23.467Z,3.22
2022-11-13T09:37:10.442Z,2.90
2022-11-13T09:39:57.865Z,2.72
2022-11-13T09:42:46.808Z,3.00
2022-11-13T09:45:35.066Z,3.55
2022-11-13T09:48:27.178Z,2.40
2022-11-13T09:51:19.672Z,4.30
2022-11-13T09:54:10.994Z,3.10
2022-11-13T09:57:26.332Z,3.80
2022-11-13T10:00:22.325Z,4.82
2022-11-13T10:06:56.527Z,3.75
2022-11-13T10:10:16.527Z,3.40
2022-11-13T10:13:05.692Z,4.65
2022-11-13T10:15:59.453Z,4.65
2022-11-13T10:18:49.493Z,4.65
2022-11-13T10:22:07.549Z,3.50
2022-11-13T10:25:12.442Z,3.20
2022-11-13T10:28:15.927Z,3.70
2022-11-13T10:31:12.597Z,3.47
2022-11-13T10:34:00.490Z,3.20
2022-11-13T10:37:16.443Z,3.22
2022-11-13T10:40:04.119Z,3.20
2022-11-13T10:42:51.592Z,3.42
2022-11-13T10:45:38.939Z,4.22
2022-11-13T10:48:36.852Z,3.30
2022-11-13T10:51:27.924Z,4.13
2022-11-13T10:54:26.957Z,6.50
2022-11-13T10:57:40.862Z,4.00
2022-11-13T11:00:33.251Z,4.28
2022-11-13T11:03:25.446Z,4.80
2022-11-13T11:06:12.975Z,4.82
2022-11-13T11:09:20.255Z,4.90
2022-11-13T11:12:30.200Z,4.03
2022-11-13T11:15:37.625Z,3.95
2022-11-13T11:18:35.640Z,3.72
2022-11-13T11:21:30.339Z,3.78
2022-11-13T11:24:29.097Z,4.20
2022-11-13T11:27:27.670Z,4.00
2022-11-13T11:30:25.160Z,3.42
2022-11-13T11:33:30.210Z,3.20
2022-11-13T11:36:34.320Z,3.42
2022-11-13T11:39:30.002Z,3.97
2022-11-13T11:42:42.748Z,4.28
2022-11-13T11:45:42.893Z,4.50
2022-11-13T11:48:32.855Z,4.30
2022-11-13T11:51:33.297Z,3.78
2022-11-13T11:54:38.938Z,3.53
2022-11-13T11:57:58.366Z,3.05
2022-11-13T12:00:54.317Z,2.90
2022-11-13T12:04:04.757Z,2.70
2022-11-13T12:06:55.103Z,3.10
2022-11-13T12:10:04.468Z,2.67
2022-11-13T12:13:13.483Z,2.25
2022-11-13T12:16:26.073Z,2.35
2022-11-13T12:19:32.234Z,3.03
2022-11-13T12:22:40.235Z,3.38
2022-11-13T12:25:30.298Z,2.40
2022-11-13T12:28:40.948Z,2.47
2022-11-13T12:31:55.854Z,2.50
2022-11-13T12:34:46.911Z,2.80
2022-11-13T12:37:54.281Z,2.80
2022-11-13T12:40:52.415Z,3.05
2022-11-13T12:43:46.025Z,2.92
2022-11-13T12:46:41.476Z,2.90
2022-11-13T12:49:33.079Z,3.10
2022-11-13T12:52:25.574Z,2.80
2022-11-13T12:55:33.417Z,2.50
2022-11-13T12:58:28.354Z,2.40
2022-11-13T13:01:20.445Z,2.40
2022-11-13T13:04:33.590Z,2.08
2022-11-13T13:07:42.276Z,2.13
2022-11-13T13:10:46.015Z,2.15
2022-11-13T13:13:33.704Z,2.85
2022-11-13T13:16:27.597Z,2.35
2022-11-13T13:19:34.388Z,2.00
2022-11-13T13:22:29.680Z,1.65
2022-11-13T13:25:35.014Z,1.98
2022-11-13T13:28:26.217Z,1.60
2022-11-13T13:31:40.952Z,2.00
2022-11-13T13:34:59.575Z,1.83
2022-11-13T13:37:53.666Z,2.03
2022-11-13T13:41:01.968Z,1.83
2022-11-13T13:44:07.696Z,2.10
2022-11-13T13:46:58.379Z,1.95
2022-11-13T13:49:45.765Z,2.25
2022-11-13T13:52:36.261Z,1.90
2022-11-13T13:55:44.903Z,2.20
2022-11-13T13:58:38.044Z,2.00
2022-11-13T14:01:35.841Z,2.22
2022-11-13T14:04:27.711Z,2.53
2022-11-13T14:07:29.463Z,2.10
2022-11-13T14:10:20.902Z,2.53
2022-11-13T14:13:14.215Z,2.80
2022-11-13T14:16:05.944Z,2.95
2022-11-13T14:19:05.097Z,3.08
2022-11-13T14:22:02.466Z,2.72
2022-11-13T14:24:54.825Z,3.10
2022-11-13T14:27:41.781Z,3.03
2022-11-13T14:30:34.000Z,2.83
2022-11-13T14:33:26.323Z,3.13
2022-11-13T14:36:16.222Z,2.70
2022-11-13T14:39:04.922Z,3.03
2022-11-13T14:41:56.700Z,3.20
2022-11-13T14:44:44.068Z,3.00
2022-11-13T14:47:37.917Z,3.10
2022-11-13T14:50:51.313Z,3.05
2022-11-13T14:53:42.661Z,3.03
2022-11-13T14:56:44.381Z,3.10
2022-11-13T14:59:31.478Z,2.90
2022-11-13T15:02:18.739Z,3.08
2022-11-13T15:05:05.836Z,2.90
2022-11-13T15:07:55.597Z,2.60
2022-11-13T15:10:42.902Z,2.65
2022-11-13T15:13:31.276Z,3.08
2022-11-13T15:16:23.566Z,2.30
2022-11-13T15:19:36.097Z,2.95
2022-11-13T15:22:27.991Z,8.32
2022-11-13T15:25:18.381Z,3.78
2022-11-13T15:28:05.662Z,2.58
2022-11-13T15:30:53.237Z,3.30
2022-11-13T15:33:40.162Z,6.70
2022-11-13T15:36:27.952Z,7.70
2022-11-13T15:39:23.050Z,4.43
2022-11-13T15:42:17.146Z,4.60
2022-11-13T15:45:12.183Z,8.20
2022-11-13T15:47:59.361Z,3.47
2022-11-13T15:50:47.415Z,17.25
2022-11-13T15:53:34.857Z,2.60
2022-11-13T15:56:22.545Z,2.53
2022-11-13T15:59:13.979Z,3.53
2022-11-13T16:02:01.221Z,5.50
2022-11-13T16:04:56.556Z,10.68
2022-11-13T16:07:44.096Z,7.03
2022-11-13T16:10:31.576Z,3.00
2022-11-13T16:13:21.377Z,1.88
2022-11-13T16:16:24.616Z,3.72
2022-11-13T16:19:15.197Z,4.75
2022-11-13T16:22:02.436Z,4.18
2022-11-13T16:24:49.726Z,2.38
2022-11-13T16:27:36.958Z,14.68
2022-11-13T16:30:25.035Z,3.40
2022-11-13T16:33:12.844Z,3.25
2022-11-13T16:35:59.863Z,2.42
2022-11-13T16:38:47.325Z,2.47
2022-11-13T16:41:34.540Z,2.80
2022-11-13T16:44:21.360Z,1.65
2022-11-13T16:47:18.900Z,2.70
2022-11-13T16:50:22.850Z,2.33
2022-11-13T16:53:11.262Z,1.85
2022-11-13T16:55:58.484Z,3.00
2022-11-13T16:58:45.885Z,3.65
2022-11-13T17:01:33.309Z,2.10
2022-11-13T17:04:20.115Z,2.83
2022-11-13T17:07:07.283Z,2.45
2022-11-13T17:10:16.655Z,2.10
2022-11-13T17:13:01.881Z,2.10
2022-11-13T17:15:49.077Z,2.58
2022-11-13T17:18:36.418Z,2.55
2022-11-13T17:21:26.395Z,3.78
2022-11-13T17:24:13.477Z,2.10
2022-11-13T17:27:00.636Z,3.55
2022-11-13T17:29:47.511Z,2.65
2022-11-13T17:32:34.537Z,2.30
2022-11-13T17:35:21.787Z,2.00
2022-11-13T17:38:08.775Z,2.35
2022-11-13T17:40:56.071Z,1.95
2022-11-13T17:43:43.787Z,2.22
2022-11-13T17:46:31.638Z,3.00
2022-11-13T17:49:19.176Z,2.97
2022-11-13T17:52:06.516Z,7.45
2022-11-13T17:54:53.282Z,2.80
2022-11-13T17:57:40.107Z,4.22
2022-11-13T18:00:27.468Z,2.97
2022-11-13T18:03:17.323Z,3.47
2022-11-13T18:06:09.410Z,3.22
2022-11-13T18:08:56.655Z,3.05
2022-11-13T18:11:43.768Z,2.67
2022-11-13T18:14:33.211Z,3.40
2022-11-13T18:17:21.230Z,3.20
2022-11-13T18:20:08.989Z,2.25
2022-11-13T18:22:56.950Z,2.50
2022-11-13T18:25:44.271Z,2.90
2022-11-13T18:28:31.130Z,3.00
2022-11-13T18:31:19.720Z,3.38
2022-11-13T18:34:08.511Z,2.67
2022-11-13T18:36:56.619Z,2.58
2022-11-13T18:39:43.822Z,2.40
2022-11-13T18:42:30.920Z,2.28
2022-11-13T18:45:18.014Z,3.83
2022-11-13T18:48:05.349Z,2.08
2022-11-13T18:50:57.319Z,1.83
2022-11-13T18:53:46.173Z,2.10
2022-11-13T18:56:34.046Z,1.77
2022-11-13T18:59:21.248Z,2.35
2022-11-13T19:02:11.804Z,1.83
2022-11-13T19:05:01.640Z,3.00
2022-11-13T19:07:48.747Z,2.15
2022-11-13T19:10:35.845Z,2.10
2022-11-13T19:13:23.026Z,2.22
2022-11-13T19:16:21.625Z,2.60
2022-11-13T19:19:15.765Z,2.95
2022-11-13T19:22:02.568Z,3.13
2022-11-13T19:24:49.743Z,2.85
2022-11-13T19:27:37.112Z,3.08
2022-11-13T19:30:24.218Z,6.78
2022-11-13T19:33:11.298Z,5.97
2022-11-13T19:35:58.260Z,5.00
2022-11-13T19:38:45.996Z,4.72
2022-11-13T19:41:33.323Z,6.30
2022-11-13T19:44:20.355Z,3.80
2022-11-13T19:47:07.702Z,5.47
2022-11-13T19:49:54.862Z,3.92
2022-11-13T19:52:42.072Z,4.53
2022-11-13T19:55:29.021Z,6.50
2022-11-13T19:58:16.215Z,5.30
2022-11-13T20:01:13.078Z,12.23
2022-11-13T20:04:02.588Z,6.15
2022-11-13T20:06:49.603Z,4.88
2022-11-13T20:09:36.615Z,4.35
2022-11-13T20:12:24.484Z,5.13
2022-11-13T20:15:11.626Z,5.65
2022-11-13T20:17:58.844Z,5.95
2022-11-13T20:20:51.668Z,5.85
2022-11-13T20:23:41.640Z,5.88
2022-11-13T20:26:29.377Z,6.18
2022-11-13T20:29:16.614Z,5.18
2022-11-13T20:32:03.472Z,4.85
2022-11-13T20:34:50.753Z,5.22
2022-11-13T20:37:38.081Z,5.10
2022-11-13T20:40:25.001Z,3.92
2022-11-13T20:43:11.861Z,4.40
2022-11-13T20:46:03.953Z,4.38
2022-11-13T20:48:51.500Z,4.15
2022-11-13T20:51:38.434Z,4.10
2022-11-13T20:54:25.335Z,4.07
2022-11-13T20:57:11.971Z,4.38
2022-11-13T20:59:59.651Z,4.13
2022-11-13T21:02:46.440Z,4.10
2022-11-13T21:05:33.833Z,4.57
2022-11-13T21:08:20.988Z,4.22
2022-11-13T21:11:09.103Z,4.20
2022-11-13T21:13:57.375Z,4.18
2022-11-13T21:16:44.430Z,3.80
2022-11-13T21:19:31.759Z,4.03
2022-11-13T21:22:19.002Z,3.25
2022-11-13T21:25:06.485Z,3.53
2022-11-13T21:27:57.348Z,3.58
2022-11-13T21:30:44.298Z,3.85
2022-11-13T21:33:36.551Z,3.38
2022-11-13T21:36:26.358Z,3.30
2022-11-13T21:39:13.265Z,3.45
2022-11-13T21:42:00.498Z,3.95
2022-11-13T21:44:47.796Z,3.30
2022-11-13T21:47:34.824Z,3.97
2022-11-13T21:50:21.828Z,3.83
2022-11-13T21:53:09.161Z,3.35
2022-11-13T21:55:56.080Z,3.97
2022-11-13T21:58:42.994Z,3.58
2022-11-13T22:01:36.621Z,4.05
2022-11-13T22:04:25.074Z,4.40
2022-11-13T22:07:12.147Z,4.10
2022-11-13T22:10:00.900Z,4.32
2022-11-13T22:12:50.817Z,4.95
2022-11-13T22:15:38.114Z,4.70
2022-11-13T22:18:25.816Z,4.90
2022-11-13T22:21:14.215Z,4.93
2022-11-13T22:24:01.550Z,4.28
2022-11-13T22:26:49.255Z,5.05
2022-11-13T22:29:36.320Z,5.15
2022-11-13T22:32:23.656Z,4.80
2022-11-13T22:35:10.670Z,5.15
2022-11-13T22:37:58.002Z,4.68
2022-11-13T22:40:45.144Z,3.72
2022-11-13T22:43:37.513Z,4.47
2022-11-13T22:46:27.733Z,4.72
2022-11-13T22:49:14.882Z,4.20
2022-11-13T22:52:01.768Z,3.72
2022-11-13T22:54:48.732Z,4.32
2022-11-13T22:57:36.169Z,4.20
2022-11-13T23:00:23.536Z,3.97
2022-11-13T23:03:10.462Z,3.95
2022-11-13T23:05:57.842Z,4.65
2022-11-13T23:08:45.092Z,4.10
2022-11-13T23:11:40.710Z,4.40
2022-11-13T23:14:28.060Z,4.10
2022-11-13T23:17:15.431Z,4.10
2022-11-13T23:20:02.337Z,4.07
2022-11-13T23:22:50.048Z,4.55
2022-11-13T23:25:37.799Z,4.20
2022-11-13T23:28:25.380Z,4.30
2022-11-13T23:31:12.870Z,4.47
2022-11-13T23:33:59.994Z,4.50
2022-11-13T23:36:46.910Z,4.72
2022-11-13T23:39:33.895Z,4.75
2022-11-13T23:42:33.323Z,5.03
2022-11-13T23:45:26.922Z,5.65
2022-11-13T23:48:14.266Z,5.05
2022-11-13T23:51:02.543Z,5.13
2022-11-13T23:53:53.010Z,5.40
2022-11-13T23:56:40.127Z,4.97
2022-11-13T23:59:27.497Z,5.25
